Time;durP1;ratioP1;P1;durP2;ratioP2;P2;SDS_P1;SDS_P2;PMS_P1;PMS_P2;Temp;Humidity;BMP_temperature;BMP_pressure;BME280_temperature;BME280_humidity;BME280_pressure;Samples;Min_cycle;Max_cycle;Signal;HPM_P1;HPM_P2
2022/11/19 00:01:05;;;;;;;16.07;7.23;;;-2.10;99.90;;;;;;4997261;28;20183;-89
2022/11/19 00:03:33;;;;;;;9.23;5.90;;;-2.20;99.90;;;;;;4997358;28;20255;-89
2022/11/19 00:06:14;;;;;;;8.97;5.97;;;-2.10;99.90;;;;;;4977817;28;20178;-89
2022/11/19 00:08:40;;;;;;;8.60;6.00;;;-2.10;99.90;;;;;;4977674;28;20202;-89
2022/11/19 00:11:15;;;;;;;11.53;6.47;;;-2.10;99.90;;;;;;4978356;28;20627;-90
2022/11/19 00:13:43;;;;;;;8.03;5.83;;;-2.10;99.90;;;;;;4978015;28;20181;-88
2022/11/19 00:16:13;;;;;;;9.83;6.50;;;-2.10;99.90;;;;;;4977611;28;20181;-90
2022/11/19 00:18:40;;;;;;;8.73;6.33;;;-2.10;99.90;;;;;;4977800;28;20207;-89
2022/11/19 00:21:10;;;;;;;7.90;5.40;;;-2.10;99.90;;;;;;4977772;28;20279;-90
2022/11/19 00:23:38;;;;;;;8.93;5.70;;;-2.20;99.90;;;;;;4977328;28;20239;-89
2022/11/19 00:26:10;;;;;;;9.83;5.90;;;-2.20;99.90;;;;;;4977572;28;20237;-89
2022/11/19 00:28:37;;;;;;;9.50;5.93;;;-2.20;99.90;;;;;;4983447;28;20207;-88
2022/11/19 00:31:08;;;;;;;13.47;6.10;;;-2.30;99.90;;;;;;4996590;28;20183;-88
2022/11/19 00:33:34;;;;;;;8.57;5.87;;;-2.30;99.90;;;;;;4996367;28;20187;-89
2022/11/19 00:36:01;;;;;;;7.73;5.97;;;-2.30;99.90;;;;;;4996538;28;20189;-89
2022/11/19 00:38:29;;;;;;;8.87;6.00;;;-2.30;99.90;;;;;;4996722;28;20294;-89
2022/11/19 00:40:54;;;;;;;10.37;6.10;;;-2.30;99.90;;;;;;4996381;28;20186;-89
2022/11/19 00:46:08;;;;;;;7.80;5.40;;;-2.30;99.90;;;;;;4997919;28;20162;-89
2022/11/19 00:48:34;;;;;;;7.40;5.47;;;-2.20;99.90;;;;;;4996431;28;20209;-89
2022/11/19 00:51:00;;;;;;;9.00;6.17;;;-2.30;99.90;;;;;;4995247;28;20181;-90
2022/11/19 00:53:26;;;;;;;11.63;6.20;;;-2.30;99.90;;;;;;4996703;28;20193;-89
2022/11/19 00:55:52;;;;;;;9.87;6.60;;;-2.20;99.90;;;;;;4996269;28;20180;-88
2022/11/19 00:58:18;;;;;;;9.87;6.20;;;-2.30;99.90;;;;;;4996172;28;20230;-89
2022/11/19 01:00:44;;;;;;;10.20;6.20;;;-2.30;99.90;;;;;;4996043;28;20626;-88
2022/11/19 01:03:11;;;;;;;9.47;6.17;;;-2.20;99.90;;;;;;4996260;28;20237;-91
2022/11/19 01:05:37;;;;;;;8.67;5.60;;;-2.20;99.90;;;;;;4996057;28;20178;-88
2022/11/19 01:08:03;;;;;;;7.60;5.53;;;-2.30;99.90;;;;;;4995765;28;20202;-89
2022/11/19 01:10:28;;;;;;;9.17;5.83;;;-2.30;99.90;;;;;;4996089;28;20178;-89
2022/11/19 01:15:40;;;;;;;9.73;5.70;;;-2.40;99.90;;;;;;4996888;28;20249;-89
2022/11/19 01:18:05;;;;;;;8.67;6.27;;;-2.40;99.90;;;;;;4995675;28;20242;-89
2022/11/19 01:20:31;;;;;;;9.23;6.30;;;-2.50;99.90;;;;;;4995409;28;20187;-91
2022/11/19 01:22:57;;;;;;;8.80;5.83;;;-2.50;99.90;;;;;;4995625;28;20211;-90
2022/11/19 01:25:23;;;;;;;8.50;6.00;;;-2.50;99.90;;;;;;4995743;28;20206;-89
2022/11/19 01:27:49;;;;;;;8.80;6.03;;;-2.50;99.90;;;;;;4995427;28;20557;-90
2022/11/19 01:30:14;;;;;;;9.53;6.23;;;-2.50;99.90;;;;;;4995332;28;20274;-90
2022/11/19 01:32:40;;;;;;;10.90;6.33;;;-2.60;99.90;;;;;;4994893;28;20194;-89
2022/11/19 01:35:06;;;;;;;8.97;5.70;;;-2.60;99.90;;;;;;4995623;28;20210;-89
2022/11/19 01:37:32;;;;;;;9.13;5.80;;;-2.60;99.90;;;;;;4995314;28;20208;-89
2022/11/19 01:39:58;;;;;;;9.27;5.57;;;-2.60;99.90;;;;;;4995118;28;20179;-91
2022/11/19 01:45:28;;;;;;;9.37;6.10;;;-2.60;99.90;;;;;;4996011;28;20607;-89
2022/11/19 01:47:57;;;;;;;9.03;5.83;;;-2.60;99.90;;;;;;4994706;28;20204;-90
2022/11/19 01:50:24;;;;;;;8.60;5.40;;;-2.60;99.90;;;;;;4994788;28;20182;-89
2022/11/19 01:52:50;;;;;;;7.30;5.37;;;-2.60;99.90;;;;;;4995878;28;20173;-91
2022/11/19 01:55:18;;;;;;;7.87;5.53;;;-2.50;99.90;;;;;;4994784;28;20250;-90
2022/11/19 01:57:48;;;;;;;8.50;5.97;;;-2.60;99.90;;;;;;4994589;28;20241;-89
2022/11/19 02:00:15;;;;;;;7.37;5.53;;;-2.60;99.90;;;;;;4995328;28;20179;-89
2022/11/19 02:02:40;;;;;;;8.93;6.17;;;-2.60;99.90;;;;;;4994579;28;20194;-89
2022/11/19 02:05:07;;;;;;;8.70;5.83;;;-2.70;99.90;;;;;;4998724;28;20232;-88
2022/11/19 02:07:34;;;;;;;7.97;5.97;;;-2.60;99.90;;;;;;4998632;28;20209;-89
2022/11/19 02:10:04;;;;;;;8.47;5.57;;;-2.70;99.90;;;;;;4998720;28;20527;-90
2022/11/19 02:13:25;;;;;;;8.90;5.90;;;-2.70;99.90;;;;;;4998590;28;20178;-90
2022/11/19 02:16:00;;;;;;;8.77;6.03;;;-2.70;99.90;;;;;;4936833;28;20192;-90
2022/11/19 02:18:54;;;;;;;9.10;6.23;;;-2.80;99.90;;;;;;5009332;28;20264;-90
2022/11/19 02:21:43;;;;;;;8.43;5.60;;;-2.80;99.90;;;;;;5007584;28;20190;-90
2022/11/19 02:24:31;;;;;;;7.60;5.63;;;-2.80;99.90;;;;;;4998714;28;20666;-90
2022/11/19 02:27:15;;;;;;;7.70;5.33;;;-2.80;99.90;;;;;;4998488;28;20701;-89
2022/11/19 02:30:15;;;;;;;9.53;6.73;;;-2.90;99.90;;;;;;4998168;28;20177;-90
2022/11/19 02:33:00;;;;;;;8.57;5.83;;;-3.00;99.90;;;;;;4998005;28;20260;-90
2022/11/19 02:38:05;;;;;;;9.33;5.73;;;-3.00;99.90;;;;;;4997419;28;20229;-84
2022/11/19 02:40:46;;;;;;;12.07;6.77;;;-3.00;99.90;;;;;;4997780;28;20186;-84
2022/11/19 02:43:35;;;;;;;9.00;6.07;;;-3.00;99.90;;;;;;4996262;28;20222;-84
2022/11/19 02:46:02;;;;;;;9.77;6.90;;;-3.00;99.90;;;;;;4996343;28;20182;-84
2022/11/19 02:48:36;;;;;;;9.27;6.93;;;-3.00;99.90;;;;;;5012751;28;20183;-84
2022/11/19 02:51:03;;;;;;;8.93;5.97;;;-3.10;99.90;;;;;;4996320;28;20185;-84
2022/11/19 02:53:30;;;;;;;9.13;6.17;;;-3.10;99.90;;;;;;4996074;28;20195;-84
2022/11/19 02:56:10;;;;;;;9.13;6.10;;;-3.20;99.90;;;;;;4996239;28;20269;-84
2022/11/19 03:04:29;;;;;;;8.23;5.27;;;-3.30;99.90;;;;;;4997216;28;20212;-84
2022/11/19 03:07:11;;;;;;;8.87;5.67;;;-3.30;99.90;;;;;;4995938;28;20597;-84
2022/11/19 03:09:54;;;;;;;8.20;5.07;;;-3.40;99.90;;;;;;4995964;28;20194;-84
2022/11/19 03:12:39;;;;;;;8.27;5.93;;;-3.50;99.90;;;;;;4995847;28;20187;-84
2022/11/19 03:18:36;;;;;;;7.33;5.57;;;-3.50;99.90;;;;;;4956194;28;20638;-84
2022/11/19 03:21:23;;;;;;;9.40;5.37;;;-3.40;99.90;;;;;;4940316;29;20292;-84
2022/11/19 03:24:01;;;;;;;7.80;5.37;;;-3.50;99.90;;;;;;4982389;28;20218;-84
2022/11/19 03:26:35;;;;;;;7.70;5.23;;;-3.50;99.90;;;;;;4995763;28;20309;-84
2022/11/19 03:29:05;;;;;;;8.57;5.67;;;-3.60;99.90;;;;;;4995656;28;20183;-84
2022/11/19 03:31:33;;;;;;;9.93;5.23;;;-3.60;99.90;;;;;;4995766;28;20178;-84
2022/11/19 03:34:04;;;;;;;8.83;5.23;;;-3.70;99.90;;;;;;4995356;28;20187;-84
2022/11/19 03:36:35;;;;;;;7.23;4.77;;;-3.80;99.90;;;;;;4995423;28;20605;-83
2022/11/19 03:39:13;;;;;;;7.07;4.93;;;-3.80;99.90;;;;;;4995556;28;20221;-85
2022/11/19 03:41:40;;;;;;;7.70;5.13;;;-3.80;99.90;;;;;;4995550;28;20177;-85
2022/11/19 03:44:24;;;;;;;8.30;5.70;;;-3.80;99.90;;;;;;4995249;28;20214;-85
2022/11/19 03:46:59;;;;;;;7.57;5.50;;;-3.80;99.90;;;;;;4996457;28;20499;-85
2022/11/19 03:49:35;;;;;;;10.37;5.50;;;-3.80;99.90;;;;;;4995404;28;20206;-84
2022/11/19 03:52:13;;;;;;;7.90;4.90;;;-3.80;99.90;;;;;;4995392;28;20678;-84
2022/11/19 03:54:40;;;;;;;8.37;5.10;;;-3.80;99.90;;;;;;4995066;28;20271;-84
2022/11/19 03:57:08;;;;;;;7.03;4.97;;;-3.80;99.90;;;;;;4996313;28;20170;-84
2022/11/19 03:59:34;;;;;;;7.17;4.93;;;-3.80;99.90;;;;;;4995093;28;20186;-84
2022/11/19 04:02:08;;;;;;;9.53;4.83;;;-3.90;99.90;;;;;;4995276;28;20179;-85
2022/11/19 04:04:35;;;;;;;7.60;5.00;;;-3.90;99.90;;;;;;4995042;28;20213;-84
2022/11/19 04:07:12;;;;;;;6.13;4.57;;;-4.00;99.90;;;;;;4994919;28;20569;-85
2022/11/19 04:09:40;;;;;;;7.03;5.20;;;-3.90;99.90;;;;;;4996112;28;20604;-85
2022/11/19 04:12:07;;;;;;;9.47;5.17;;;-3.90;99.90;;;;;;4994972;28;20173;-84
2022/11/19 04:14:33;;;;;;;7.97;5.17;;;-3.90;99.90;;;;;;4994844;28;20199;-85
2022/11/19 04:16:59;;;;;;;8.20;4.83;;;-3.90;99.90;;;;;;4994777;28;20636;-85
2022/11/19 04:19:24;;;;;;;6.43;4.80;;;-3.90;99.90;;;;;;4994748;28;20269;-85
2022/11/19 04:21:50;;;;;;;7.27;5.00;;;-3.80;99.90;;;;;;4994774;28;20223;-85
2022/11/19 04:24:17;;;;;;;7.23;5.13;;;-3.90;99.90;;;;;;4994798;28;20215;-85
2022/11/19 04:26:43;;;;;;;10.27;5.60;;;-4.00;99.90;;;;;;4993959;28;20188;-85
2022/11/19 04:29:08;;;;;;;6.77;5.10;;;-4.10;99.90;;;;;;4994810;28;20186;-85
2022/11/19 04:31:34;;;;;;;9.53;5.60;;;-4.00;99.90;;;;;;4994714;28;20634;-85
2022/11/19 04:34:00;;;;;;;6.83;5.13;;;-3.90;99.90;;;;;;4994580;28;20225;-84
2022/11/19 04:36:26;;;;;;;8.67;5.70;;;-4.00;99.90;;;;;;4994244;28;20669;-84
2022/11/19 04:38:51;;;;;;;9.90;5.70;;;-4.20;99.90;;;;;;4994529;28;20656;-85
2022/11/19 04:41:17;;;;;;;8.23;5.20;;;-4.10;99.90;;;;;;4994485;28;20215;-85
2022/11/19 04:43:43;;;;;;;7.27;5.07;;;-4.00;99.90;;;;;;4994379;28;20217;-85
2022/11/19 04:46:09;;;;;;;7.83;5.27;;;-4.10;99.90;;;;;;4994515;28;20245;-85
2022/11/19 04:48:34;;;;;;;7.00;5.23;;;-4.10;99.90;;;;;;4994419;28;20232;-85
2022/11/19 04:51:00;;;;;;;7.73;4.97;;;-4.10;99.90;;;;;;4994190;28;20175;-85
2022/11/19 04:53:26;;;;;;;6.93;5.00;;;-4.00;99.90;;;;;;4994249;28;20630;-85
2022/11/19 04:55:51;;;;;;;6.53;5.10;;;-4.20;99.90;;;;;;4994380;28;20195;-85
2022/11/19 04:58:17;;;;;;;6.70;4.83;;;-4.20;99.90;;;;;;4994182;28;20273;-86
2022/11/19 05:00:43;;;;;;;8.33;5.20;;;-4.10;99.90;;;;;;4994165;28;20185;-85
2022/11/19 05:03:08;;;;;;;8.03;4.83;;;-4.00;99.90;;;;;;4993997;28;20213;-85
2022/11/19 05:05:34;;;;;;;8.43;5.67;;;-3.90;99.90;;;;;;4993966;28;20636;-85
2022/11/19 05:08:00;;;;;;;9.07;5.03;;;-4.00;99.90;;;;;;4994155;28;20267;-85
2022/11/19 05:10:25;;;;;;;7.50;4.90;;;-3.90;99.90;;;;;;4994203;28;20186;-86
2022/11/19 05:12:51;;;;;;;8.00;5.10;;;-4.00;99.90;;;;;;4993910;28;20524;-85
2022/11/19 05:15:17;;;;;;;8.63;4.80;;;-4.00;99.90;;;;;;4993994;28;20185;-85
2022/11/19 05:17:43;;;;;;;7.67;4.57;;;-4.00;99.90;;;;;;4993980;28;20260;-85
2022/11/19 05:20:09;;;;;;;6.87;5.20;;;-4.00;99.90;;;;;;4993971;28;20176;-85
2022/11/19 05:22:35;;;;;;;9.00;5.37;;;-4.10;99.90;;;;;;4993886;28;20562;-86
2022/11/19 05:25:01;;;;;;;9.23;5.50;;;-4.10;99.90;;;;;;4993798;28;20183;-85
2022/11/19 05:27:27;;;;;;;7.63;5.23;;;-4.20;99.90;;;;;;4993844;28;20185;-86
2022/11/19 05:29:52;;;;;;;7.57;5.27;;;-4.30;99.90;;;;;;4993629;28;20181;-85
2022/11/19 05:32:18;;;;;;;9.33;4.53;;;-4.30;99.90;;;;;;4993916;28;20604;-85
2022/11/19 05:34:44;;;;;;;7.63;5.37;;;-4.30;99.90;;;;;;4993465;28;20185;-85
2022/11/19 05:37:09;;;;;;;7.70;5.23;;;-4.20;99.90;;;;;;4993375;28;20333;-86
2022/11/19 05:39:35;;;;;;;8.20;5.57;;;-4.20;99.90;;;;;;4993772;28;20181;-85
2022/11/19 05:42:01;;;;;;;7.90;5.27;;;-4.20;99.90;;;;;;4993681;28;20189;-86
2022/11/19 05:44:26;;;;;;;7.77;4.83;;;-4.30;99.90;;;;;;4993597;28;20224;-86
2022/11/19 05:46:54;;;;;;;7.87;4.87;;;-4.20;99.90;;;;;;4993661;28;20210;-86
2022/11/19 05:49:19;;;;;;;10.27;5.90;;;-4.20;99.90;;;;;;4993653;28;20213;-86
2022/11/19 05:51:45;;;;;;;8.83;5.57;;;-4.20;99.90;;;;;;4993651;28;20613;-85
2022/11/19 05:54:11;;;;;;;8.63;5.33;;;-4.20;99.90;;;;;;4993568;28;20185;-85
2022/11/19 05:56:37;;;;;;;8.57;5.33;;;-4.20;99.90;;;;;;4993605;28;20184;-85
2022/11/19 05:59:03;;;;;;;6.40;4.83;;;-4.30;99.90;;;;;;4993869;28;20185;-86
2022/11/19 06:01:29;;;;;;;7.00;5.30;;;-4.20;99.90;;;;;;4993756;28;20180;-86
2022/11/19 06:03:55;;;;;;;8.00;5.17;;;-4.20;99.90;;;;;;4993557;28;20226;-86
2022/11/19 06:06:22;;;;;;;7.13;4.77;;;-4.20;99.90;;;;;;4993549;28;20219;-86
2022/11/19 06:08:49;;;;;;;7.23;5.03;;;-4.20;99.90;;;;;;4993572;28;20190;-86
2022/11/19 06:13:59;;;;;;;8.10;4.90;;;-4.20;99.90;;;;;;4994942;28;20184;-85
2022/11/19 06:16:25;;;;;;;6.37;4.60;;;-4.40;99.90;;;;;;4994652;28;20177;-86
2022/11/19 06:18:51;;;;;;;7.93;5.20;;;-4.40;99.90;;;;;;4993312;28;20630;-85
2022/11/19 06:21:17;;;;;;;6.13;4.67;;;-4.40;99.90;;;;;;4993654;28;20195;-86
2022/11/19 06:23:43;;;;;;;8.47;5.20;;;-4.50;99.90;;;;;;4993370;28;20215;-86
2022/11/19 06:26:09;;;;;;;6.90;4.80;;;-4.40;99.90;;;;;;4993408;28;20270;-86
2022/11/19 06:28:36;;;;;;;9.47;4.93;;;-4.30;99.90;;;;;;4993600;28;20208;-87
2022/11/19 06:31:02;;;;;;;7.73;4.97;;;-4.30;99.90;;;;;;4993472;28;20177;-86
2022/11/19 06:33:28;;;;;;;8.07;5.07;;;-4.30;99.90;;;;;;4993176;28;20185;-87
2022/11/19 06:35:54;;;;;;;8.03;5.07;;;-4.20;99.90;;;;;;4993279;28;20220;-86
2022/11/19 06:38:19;;;;;;;8.17;5.53;;;-4.20;99.90;;;;;;5009921;28;20193;-87
2022/11/19 06:40:45;;;;;;;8.63;6.00;;;-4.20;99.90;;;;;;4993439;28;20183;-87
2022/11/19 06:43:11;;;;;;;8.57;5.70;;;-4.20;99.90;;;;;;4993380;28;20597;-87
2022/11/19 06:45:37;;;;;;;9.37;5.80;;;-4.20;99.90;;;;;;4993412;28;20693;-86
2022/11/19 06:48:03;;;;;;;9.53;5.93;;;-4.20;99.90;;;;;;4993131;28;20174;-86
2022/11/19 06:50:30;;;;;;;9.30;6.10;;;-4.20;99.90;;;;;;4995668;28;20295;-87
2022/11/19 06:52:56;;;;;;;9.23;5.40;;;-4.20;99.90;;;;;;4998022;28;20303;-86
2022/11/19 06:55:21;;;;;;;8.00;5.33;;;-4.20;99.90;;;;;;4996828;28;20639;-86
2022/11/19 06:57:47;;;;;;;9.03;5.57;;;-4.30;99.90;;;;;;4996679;28;20191;-86
2022/11/19 07:00:14;;;;;;;9.20;5.70;;;-4.30;99.90;;;;;;4996884;28;20192;-86
2022/11/19 07:02:39;;;;;;;11.27;6.00;;;-4.20;99.90;;;;;;4996500;28;20242;-86
2022/11/19 07:05:06;;;;;;;10.77;5.30;;;-4.10;99.90;;;;;;4996535;28;20580;-86
2022/11/19 07:07:33;;;;;;;8.67;5.70;;;-4.30;99.90;;;;;;4996455;28;20627;-87
2022/11/19 07:09:59;;;;;;;7.53;5.40;;;-4.30;99.90;;;;;;4996644;28;20188;-86
2022/11/19 07:12:25;;;;;;;7.40;5.30;;;-4.20;99.90;;;;;;4996605;28;20177;-87
2022/11/19 07:14:51;;;;;;;8.03;5.40;;;-4.20;99.90;;;;;;4996270;28;20192;-85
2022/11/19 07:17:17;;;;;;;12.47;6.40;;;-4.20;99.90;;;;;;4996404;28;20188;-86
2022/11/19 07:19:43;;;;;;;12.77;7.43;;;-4.30;99.90;;;;;;4996512;28;20176;-88
2022/11/19 07:22:09;;;;;;;9.40;6.00;;;-4.30;99.90;;;;;;4996448;28;20212;-87
2022/11/19 07:24:34;;;;;;;7.80;5.40;;;-4.30;99.90;;;;;;4996509;28;20205;-87
2022/11/19 07:27:00;;;;;;;9.40;5.97;;;-4.30;99.90;;;;;;4996461;28;20208;-87
2022/11/19 07:29:26;;;;;;;11.90;7.37;;;-4.20;99.90;;;;;;4996308;28;20231;-87
2022/11/19 07:31:52;;;;;;;15.80;9.10;;;-4.30;99.90;;;;;;4996584;28;20227;-87
2022/11/19 07:34:18;;;;;;;14.53;7.73;;;-4.30;99.90;;;;;;4996437;28;20331;-88
2022/11/19 07:36:45;;;;;;;15.60;8.57;;;-4.30;99.90;;;;;;4996089;28;20235;-88
2022/11/19 07:39:11;;;;;;;12.60;6.97;;;-4.30;99.90;;;;;;4997381;28;20192;-87
2022/11/19 07:44:21;;;;;;;12.63;7.37;;;-4.00;99.90;;;;;;4997120;28;20332;-87
2022/11/19 07:46:47;;;;;;;17.30;9.33;;;-4.00;99.90;;;;;;4996018;28;20277;-88
2022/11/19 07:49:13;;;;;;;14.63;8.70;;;-4.10;99.90;;;;;;4996099;28;20521;-88
2022/11/19 07:51:38;;;;;;;12.93;8.40;;;-4.10;99.90;;;;;;4996018;28;20175;-88
2022/11/19 07:54:05;;;;;;;16.70;9.27;;;-4.10;99.90;;;;;;4995747;28;20681;-88
2022/11/19 07:56:30;;;;;;;15.83;9.83;;;-4.10;99.90;;;;;;4995847;28;20268;-88
2022/11/19 07:58:59;;;;;;;19.40;10.97;;;-4.00;99.90;;;;;;4995657;28;20278;-88
2022/11/19 08:01:25;;;;;;;12.73;8.50;;;-4.00;99.90;;;;;;4994510;28;20181;-88
2022/11/19 08:03:52;;;;;;;21.07;12.00;;;-3.90;99.90;;;;;;4995553;28;20264;-88
2022/11/19 08:06:19;;;;;;;25.20;14.20;;;-3.80;99.90;;;;;;4995787;28;20192;-88
2022/11/19 08:08:45;;;;;;;13.90;9.17;;;-3.80;99.90;;;;;;4995546;28;20196;-88
2022/11/19 08:11:13;;;;;;;16.13;10.00;;;-3.80;99.90;;;;;;4995549;28;20174;-88
2022/11/19 08:13:39;;;;;;;19.20;10.50;;;-3.80;99.90;;;;;;4995474;28;20176;-87
2022/11/19 08:16:08;;;;;;;19.80;11.30;;;-3.80;99.90;;;;;;4995404;28;20186;-88
2022/11/19 08:18:35;;;;;;;21.07;12.57;;;-3.80;99.90;;;;;;4995503;28;20181;-89
2022/11/19 08:21:07;;;;;;;18.70;11.90;;;-3.70;99.90;;;;;;4995280;28;20213;-88
2022/11/19 08:23:34;;;;;;;18.10;11.03;;;-3.60;99.90;;;;;;4995052;28;20206;-88
2022/11/19 08:26:00;;;;;;;17.93;10.80;;;-3.60;99.90;;;;;;4995147;28;20193;-88
2022/11/19 08:28:26;;;;;;;18.63;10.43;;;-3.60;99.90;;;;;;4995098;28;20255;-88
2022/11/19 08:30:52;;;;;;;12.23;8.87;;;-3.60;99.90;;;;;;4995304;28;20189;-88
2022/11/19 08:33:18;;;;;;;14.20;8.67;;;-3.50;99.90;;;;;;4995080;28;20516;-88
2022/11/19 08:35:44;;;;;;;14.50;8.47;;;-3.40;99.90;;;;;;4995012;28;20649;-87
2022/11/19 08:38:09;;;;;;;13.10;8.37;;;-3.30;99.90;;;;;;4994944;28;20190;-86
2022/11/19 08:40:35;;;;;;;12.27;7.97;;;-3.10;99.90;;;;;;4994957;28;20191;-88
2022/11/19 08:43:01;;;;;;;14.67;8.70;;;-3.00;99.90;;;;;;4994643;28;20218;-88
2022/11/19 08:45:28;;;;;;;12.40;7.90;;;-2.90;99.90;;;;;;4994793;28;20225;-88
2022/11/19 08:47:55;;;;;;;12.40;7.70;;;-2.80;99.90;;;;;;4994745;28;20273;-87
2022/11/19 08:50:21;;;;;;;12.47;7.67;;;-2.70;99.90;;;;;;4994951;28;20187;-88
2022/11/19 08:52:55;;;;;;;11.40;7.07;;;-2.70;99.90;;;;;;4994644;28;20192;-87
2022/11/19 08:55:21;;;;;;;11.63;7.43;;;-2.60;99.90;;;;;;4994670;28;20182;-88
2022/11/19 08:57:47;;;;;;;9.53;6.80;;;-2.50;99.90;;;;;;4994758;28;20630;-88
2022/11/19 09:00:13;;;;;;;11.67;6.70;;;-2.40;99.90;;;;;;4994586;28;20194;-88
2022/11/19 09:02:39;;;;;;;11.20;6.93;;;-2.40;99.90;;;;;;4994523;28;20183;-87
2022/11/19 09:05:05;;;;;;;9.70;6.83;;;-2.30;99.90;;;;;;4994398;28;20280;-87
2022/11/19 09:07:31;;;;;;;11.60;7.60;;;-2.20;99.90;;;;;;4994393;28;20184;-88
2022/11/19 09:09:56;;;;;;;10.90;7.00;;;-2.20;99.90;;;;;;4994800;28;20504;-88
2022/11/19 09:12:22;;;;;;;8.87;6.57;;;-2.20;99.90;;;;;;4994029;28;20184;-88
2022/11/19 09:14:49;;;;;;;11.13;7.40;;;-2.10;99.90;;;;;;4994387;28;20273;-88
2022/11/19 09:17:15;;;;;;;11.73;6.80;;;-2.00;99.90;;;;;;4994363;28;20198;-87
2022/11/19 09:19:41;;;;;;;11.40;6.97;;;-2.00;99.90;;;;;;4994256;28;20188;-87
2022/11/19 09:22:07;;;;;;;11.57;7.27;;;-1.90;99.90;;;;;;4994345;28;20191;-86
2022/11/19 09:24:33;;;;;;;11.07;6.57;;;-1.90;99.90;;;;;;4994109;28;20225;-88
2022/11/19 09:27:00;;;;;;;8.97;6.00;;;-1.80;99.90;;;;;;4994172;28;20217;-87
2022/11/19 09:29:26;;;;;;;10.53;6.77;;;-1.80;99.90;;;;;;4994052;28;20270;-93
2022/11/19 09:31:51;;;;;;;11.30;5.80;;;-1.70;99.90;;;;;;4994105;28;20608;-87
2022/11/19 09:34:17;;;;;;;10.23;6.07;;;-1.60;99.90;;;;;;4993935;28;20267;-86
2022/11/19 09:36:43;;;;;;;10.80;6.57;;;-1.60;99.90;;;;;;4994825;28;20212;-86
2022/11/19 09:39:09;;;;;;;10.80;6.37;;;-1.50;99.90;;;;;;4993890;28;20233;-86
2022/11/19 09:42:02;;;;;;;10.13;6.47;;;-1.40;99.90;;;;;;4993695;28;20552;-85
2022/11/19 09:44:54;;;;;;;9.40;5.93;;;-1.30;99.90;;;;;;5010050;28;20207;-86
2022/11/19 09:47:26;;;;;;;10.70;6.00;;;-1.30;99.90;;;;;;4994797;28;20168;-86
2022/11/19 09:50:03;;;;;;;7.60;4.87;;;-1.30;99.90;;;;;;5010169;28;20175;-85
2022/11/19 09:52:34;;;;;;;7.17;4.93;;;-1.20;99.90;;;;;;5010284;28;20214;-86
2022/11/19 09:55:01;;;;;;;7.00;5.07;;;-1.20;99.90;;;;;;4994824;28;20172;-86
2022/11/19 09:57:45;;;;;;;11.43;5.50;;;-1.10;99.90;;;;;;4993874;28;20183;-87
2022/11/19 10:00:17;;;;;;;9.20;5.57;;;-1.10;99.90;;;;;;4993878;28;20179;-87
2022/11/19 10:02:43;;;;;;;8.70;4.90;;;-1.00;99.90;;;;;;4993908;28;20184;-88
2022/11/19 10:05:14;;;;;;;10.13;6.00;;;-0.90;99.90;;;;;;4993616;28;20199;-88
2022/11/19 10:07:44;;;;;;;11.90;5.03;;;-0.80;99.90;;;;;;4993701;28;20282;-88
2022/11/19 10:10:43;;;;;;;7.77;5.10;;;-0.70;99.90;;;;;;5010096;28;20223;-87
2022/11/19 10:13:28;;;;;;;7.37;5.03;;;-0.70;99.90;;;;;;5010021;28;20176;-88
2022/11/19 10:16:22;;;;;;;10.43;6.80;;;-0.60;99.90;;;;;;4993779;28;20215;-87
2022/11/19 10:19:01;;;;;;;8.57;5.60;;;-0.60;99.90;;;;;;4960795;28;20256;-87
2022/11/19 10:21:44;;;;;;;12.23;6.30;;;-0.50;99.90;;;;;;5009932;28;20231;-89
2022/11/19 10:24:37;;;;;;;9.10;6.57;;;-0.50;99.90;;;;;;4994022;28;20673;-88
2022/11/19 10:27:14;;;;;;;8.60;6.23;;;-0.50;99.90;;;;;;5013849;28;20195;-87
2022/11/19 10:29:40;;;;;;;7.73;5.70;;;-0.40;99.90;;;;;;4997481;28;20634;-88
2022/11/19 10:32:25;;;;;;;8.10;5.10;;;-0.40;99.90;;;;;;4997586;28;20198;-87
2022/11/19 10:34:57;;;;;;;8.10;5.63;;;-0.40;99.90;;;;;;4998372;28;20168;-86
2022/11/19 10:37:28;;;;;;;7.23;4.97;;;-0.40;99.90;;;;;;4997083;28;20697;-86
2022/11/19 10:40:06;;;;;;;7.63;5.03;;;-0.40;99.90;;;;;;4997179;28;20180;-86
2022/11/19 10:42:35;;;;;;;7.63;5.37;;;-0.30;99.90;;;;;;4997193;28;20175;-86
2022/11/19 10:45:05;;;;;;;6.63;4.60;;;-0.30;99.90;;;;;;4997032;28;20621;-87
2022/11/19 10:47:49;;;;;;;8.10;5.10;;;-0.30;99.90;;;;;;4997376;28;20554;-86
2022/11/19 10:50:21;;;;;;;9.47;5.63;;;-0.20;99.90;;;;;;4998299;28;20171;-88
2022/11/19 10:53:04;;;;;;;8.67;5.40;;;-0.20;99.90;;;;;;4997100;28;20186;-87
2022/11/19 10:55:39;;;;;;;7.50;4.67;;;-0.20;99.90;;;;;;4996809;28;20207;-86
2022/11/19 10:58:10;;;;;;;7.17;4.80;;;-0.10;99.90;;;;;;4996780;28;20514;-87
2022/11/19 11:00:38;;;;;;;7.40;5.10;;;-0.10;99.90;;;;;;4993453;28;20247;-86
2022/11/19 11:03:14;;;;;;;8.33;5.70;;;0.10;99.90;;;;;;5011808;28;20249;-86
2022/11/19 11:05:54;;;;;;;9.10;5.07;;;0.20;99.90;;;;;;5014221;28;20274;-87
2022/11/19 11:08:20;;;;;;;7.43;4.33;;;0.20;99.90;;;;;;5011345;28;20191;-87
2022/11/19 11:10:47;;;;;;;6.57;4.80;;;0.30;99.90;;;;;;5012215;28;20187;-87
2022/11/19 11:16:19;;;;;;;8.40;4.60;;;0.50;99.90;;;;;;5015051;28;20236;-87
2022/11/19 11:18:45;;;;;;;7.77;4.80;;;0.50;99.90;;;;;;5014961;28;20206;-87
2022/11/19 11:21:25;;;;;;;9.47;4.87;;;0.60;99.90;;;;;;5013216;28;20213;-87
2022/11/19 11:23:54;;;;;;;7.80;4.57;;;0.70;99.90;;;;;;5009757;28;20241;-87
2022/11/19 11:26:28;;;;;;;6.33;4.33;;;0.80;99.90;;;;;;5014137;28;20220;-87
2022/11/19 11:29:20;;;;;;;7.80;4.63;;;0.90;99.90;;;;;;5014545;28;20665;-87
2022/11/19 11:31:47;;;;;;;8.73;4.80;;;0.90;99.90;;;;;;5009161;28;20517;-87
2022/11/19 11:34:36;;;;;;;5.07;3.33;;;1.00;99.90;;;;;;5013429;28;20178;-86
2022/11/19 11:37:05;;;;;;;4.87;3.40;;;1.00;99.90;;;;;;5013363;28;20309;-87
2022/11/19 11:39:31;;;;;;;5.27;3.63;;;1.10;99.90;;;;;;5013845;28;20183;-88
2022/11/19 11:41:59;;;;;;;6.93;4.43;;;1.20;99.90;;;;;;5012437;28;20286;-87
2022/11/19 11:44:31;;;;;;;6.03;3.73;;;1.20;99.90;;;;;;5013202;28;20214;-88
2022/11/19 11:47:01;;;;;;;5.63;3.87;;;1.30;99.90;;;;;;5012271;28;20178;-87
2022/11/19 11:49:29;;;;;;;7.77;4.53;;;1.30;99.90;;;;;;5013673;28;20174;-88
2022/11/19 11:52:40;;;;;;;8.50;4.00;;;1.30;99.90;;;;;;5011644;28;20186;-87
2022/11/19 11:55:37;;;;;;;5.93;3.77;;;1.30;99.90;;;;;;5007323;28;20183;-87
2022/11/19 11:58:24;;;;;;;6.63;3.80;;;1.30;99.90;;;;;;4997959;28;20214;-87
2022/11/19 12:01:08;;;;;;;4.53;3.10;;;1.30;99.90;;;;;;5010875;28;20183;-88
2022/11/19 12:03:34;;;;;;;8.10;3.83;;;1.40;99.90;;;;;;5012133;28;20237;-86
2022/11/19 12:06:00;;;;;;;4.93;3.23;;;1.50;99.90;;;;;;5012710;28;20188;-88
2022/11/19 12:08:53;;;;;;;4.03;2.90;;;1.50;99.90;;;;;;5014507;28;20225;-86
2022/11/19 12:11:53;;;;;;;4.93;2.90;;;1.70;99.90;;;;;;5009698;28;20628;-86
2022/11/19 12:14:46;;;;;;;4.40;3.03;;;1.70;99.90;;;;;;5011327;28;20175;-87
2022/11/19 12:17:28;;;;;;;6.10;3.80;;;1.70;99.90;;;;;;5012107;28;20603;-87
2022/11/19 12:20:07;;;;;;;5.13;3.40;;;1.80;99.90;;;;;;5013199;28;20253;-87
2022/11/19 12:22:46;;;;;;;5.00;3.30;;;1.80;99.90;;;;;;5011209;28;20175;-87
2022/11/19 12:25:37;;;;;;;5.70;3.80;;;1.90;99.90;;;;;;5013193;28;20298;-87
2022/11/19 12:28:03;;;;;;;5.57;3.53;;;2.00;99.90;;;;;;5009942;28;20266;-86
2022/11/19 12:30:39;;;;;;;4.10;2.73;;;2.10;99.90;;;;;;5012559;28;20270;-87
2022/11/19 12:33:05;;;;;;;3.60;2.70;;;2.10;99.90;;;;;;5011158;28;20700;-87
2022/11/19 12:36:09;;;;;;;4.80;3.20;;;2.20;99.90;;;;;;5012759;28;20210;-87
2022/11/19 12:38:55;;;;;;;4.20;2.67;;;2.30;99.90;;;;;;5010670;28;20249;-87
2022/11/19 12:41:48;;;;;;;4.93;2.90;;;2.20;99.90;;;;;;5014352;28;20167;-87
2022/11/19 12:44:43;;;;;;;4.70;3.20;;;2.20;99.90;;;;;;4973876;28;20292;-86
2022/11/19 12:47:47;;;;;;;4.53;2.67;;;2.10;99.90;;;;;;4980124;28;20618;-87
2022/11/19 12:50:36;;;;;;;3.37;2.60;;;2.10;99.90;;;;;;5010272;28;20314;-86
2022/11/19 12:53:34;;;;;;;3.87;2.70;;;2.10;99.90;;;;;;5013399;28;20194;-86
2022/11/19 12:56:21;;;;;;;4.27;2.77;;;2.00;99.90;;;;;;4998853;28;20191;-86
2022/11/19 12:58:57;;;;;;;6.30;2.53;;;1.90;99.90;;;;;;5014204;28;20179;-87
2022/11/19 13:01:29;;;;;;;4.17;2.87;;;1.90;99.90;;;;;;5014104;28;20503;-86
2022/11/19 13:04:17;;;;;;;4.47;2.57;;;1.90;99.90;;;;;;5014063;28;20289;-87
2022/11/19 13:06:48;;;;;;;3.37;2.50;;;2.00;99.90;;;;;;5015180;28;20171;-86
2022/11/19 13:09:21;;;;;;;3.93;2.50;;;2.10;99.90;;;;;;5013786;28;20219;-85
2022/11/19 13:12:01;;;;;;;4.00;2.90;;;2.10;99.90;;;;;;5013879;28;20225;-86
2022/11/19 13:14:48;;;;;;;3.73;2.43;;;2.00;99.90;;;;;;5013808;28;20226;-87
2022/11/19 13:17:21;;;;;;;4.17;2.77;;;1.90;99.90;;;;;;5013850;28;20183;-86
2022/11/19 13:19:55;;;;;;;3.57;2.57;;;1.80;99.90;;;;;;5013541;28;20618;-87
2022/11/19 13:22:28;;;;;;;3.80;2.43;;;1.70;99.90;;;;;;5013839;28;20170;-87
2022/11/19 13:24:57;;;;;;;3.80;2.70;;;1.60;99.90;;;;;;5013707;28;20261;-87
2022/11/19 13:27:25;;;;;;;3.17;2.40;;;1.60;99.90;;;;;;5013565;28;20178;-87
2022/11/19 13:29:57;;;;;;;4.60;2.50;;;1.60;99.90;;;;;;5013553;28;20262;-87
2022/11/19 13:33:01;;;;;;;2.83;2.10;;;1.60;99.90;;;;;;5013499;28;20274;-86
2022/11/19 13:36:02;;;;;;;7.97;4.23;;;1.60;99.90;;;;;;5013456;28;20182;-87